Time;durP1;ratioP1;P1;durP2;ratioP2;P2;SDS_P1;SDS_P2;PMS_P1;PMS_P2;Temp;Humidity;BMP_temperature;BMP_pressure;BME280_temperature;BME280_humidity;BME280_pressure;Samples;Min_cycle;Max_cycle;Signal;HPM_P1;HPM_P2
2022/07/24 00:01:45;;;;;;;;;;;19.20;93.00;;;;;;5033923;28;19921;-73
2022/07/24 00:04:13;;;;;;;;;;;19.20;93.00;;;;;;5035191;28;19932;-73
2022/07/24 00:06:40;;;;;;;;;;;19.20;93.10;;;;;;5034912;28;19921;-73
2022/07/24 00:09:08;;;;;;;;;;;19.20;93.10;;;;;;5016560;28;19921;-73
2022/07/24 00:11:35;;;;;;;;;;;19.30;93.20;;;;;;5034873;28;19992;-73
2022/07/24 00:14:03;;;;;;;;;;;19.30;93.30;;;;;;5033785;28;19925;-73
2022/07/24 00:16:30;;;;;;;;;;;19.20;93.20;;;;;;5034852;28;20023;-73
2022/07/24 00:18:58;;;;;;;;;;;19.20;93.20;;;;;;5034812;28;19921;-73
2022/07/24 00:21:26;;;;;;;;;;;19.30;93.30;;;;;;5034061;28;19935;-73
2022/07/24 00:23:53;;;;;;;;;;;19.20;93.30;;;;;;5017944;28;19928;-73
2022/07/24 00:26:21;;;;;;;;;;;19.20;93.40;;;;;;5034835;28;19921;-73
2022/07/24 00:28:49;;;;;;;;;;;19.20;93.40;;;;;;5033644;28;19920;-73
2022/07/24 00:31:17;;;;;;;;;;;19.20;93.50;;;;;;5017461;28;19928;-73
2022/07/24 00:33:46;;;;;;;;;;;19.20;93.60;;;;;;5034699;28;19921;-73
2022/07/24 00:36:13;;;;;;;;;;;19.20;93.60;;;;;;5034782;28;19928;-73
2022/07/24 00:38:41;;;;;;;;;;;19.20;93.70;;;;;;5021185;28;20360;-73
2022/07/24 00:41:08;;;;;;;;;;;19.10;93.70;;;;;;5052898;28;19920;-73
2022/07/24 00:43:56;;;;;;;;;;;19.10;93.80;;;;;;5054989;28;19921;-73
2022/07/24 00:46:23;;;;;;;;;;;19.10;93.90;;;;;;5054242;28;20355;-73
2022/07/24 00:48:51;;;;;;;;;;;19.10;93.90;;;;;;5053171;28;19928;-73
2022/07/24 00:51:19;;;;;;;;;;;19.10;94.00;;;;;;5054369;28;19921;-73
2022/07/24 00:53:46;;;;;;;;;;;19.00;94.30;;;;;;5053303;28;19921;-73
2022/07/24 00:56:14;;;;;;;;;;;19.00;94.50;;;;;;5056233;28;19921;-73
2022/07/24 00:58:41;;;;;;;;;;;19.00;94.60;;;;;;5058187;28;19921;-73
2022/07/24 01:01:09;;;;;;;;;;;18.90;94.70;;;;;;5056229;28;19928;-73
2022/07/24 01:03:36;;;;;;;;;;;18.90;94.70;;;;;;5058359;28;19920;-73
2022/07/24 01:06:05;;;;;;;;;;;18.90;94.70;;;;;;5058001;28;20271;-73
2022/07/24 01:08:34;;;;;;;;;;;19.00;94.70;;;;;;5056824;28;19924;-73
2022/07/24 01:11:03;;;;;;;;;;;19.00;94.60;;;;;;5057846;28;20031;-73
2022/07/24 01:13:30;;;;;;;;;;;19.00;94.60;;;;;;5057731;28;19921;-73
2022/07/24 01:15:58;;;;;;;;;;;19.00;94.80;;;;;;5055887;28;19921;-73
2022/07/24 01:18:26;;;;;;;;;;;19.00;94.70;;;;;;5057298;28;19921;-73
2022/07/24 01:20:55;;;;;;;;;;;18.90;94.70;;;;;;5056754;28;19925;-73
2022/07/24 01:23:22;;;;;;;;;;;18.90;94.70;;;;;;5057920;28;19920;-73
2022/07/24 01:25:50;;;;;;;;;;;18.80;94.80;;;;;;5056742;28;19920;-73
2022/07/24 01:28:18;;;;;;;;;;;18.80;94.80;;;;;;5055530;28;19920;-73
2022/07/24 01:30:45;;;;;;;;;;;18.80;94.90;;;;;;5057053;28;19920;-73
2022/07/24 01:33:13;;;;;;;;;;;18.80;95.00;;;;;;5057604;28;19924;-73
2022/07/24 01:35:41;;;;;;;;;;;18.70;95.10;;;;;;5056424;28;19920;-73
2022/07/24 01:38:09;;;;;;;;;;;18.70;95.00;;;;;;5057553;28;19920;-73
2022/07/24 01:40:37;;;;;;;;;;;18.70;95.00;;;;;;5038774;28;19921;-73
2022/07/24 01:43:04;;;;;;;;;;;18.70;95.00;;;;;;5056451;28;19920;-73
2022/07/24 01:45:32;;;;;;;;;;;18.70;94.90;;;;;;5056637;28;19920;-73
2022/07/24 01:47:59;;;;;;;;;;;18.60;94.90;;;;;;5056107;28;20267;-73
2022/07/24 01:50:26;;;;;;;;;;;18.70;94.90;;;;;;5057175;28;19927;-73
2022/07/24 01:52:54;;;;;;;;;;;18.70;94.80;;;;;;5057085;28;20370;-73
2022/07/24 01:55:22;;;;;;;;;;;18.60;94.70;;;;;;5055387;28;19921;-73
2022/07/24 01:57:49;;;;;;;;;;;18.70;94.70;;;;;;5040155;28;19936;-73
2022/07/24 02:00:17;;;;;;;;;;;18.70;94.70;;;;;;5056106;28;19928;-73
2022/07/24 02:02:46;;;;;;;;;;;18.70;94.70;;;;;;5056062;28;19920;-73
2022/07/24 02:05:14;;;;;;;;;;;18.70;94.70;;;;;;5056870;28;19924;-73
2022/07/24 02:07:42;;;;;;;;;;;18.60;94.70;;;;;;5054095;28;19947;-73
2022/07/24 02:10:10;;;;;;;;;;;18.60;94.70;;;;;;5056892;28;19921;-73
2022/07/24 02:12:38;;;;;;;;;;;18.60;94.70;;;;;;5056712;28;19921;-73
2022/07/24 02:15:05;;;;;;;;;;;18.50;94.70;;;;;;5055827;28;19920;-73
2022/07/24 02:17:33;;;;;;;;;;;18.50;94.70;;;;;;5056774;28;19920;-73
2022/07/24 02:20:00;;;;;;;;;;;18.50;94.80;;;;;;5055710;28;19928;-73
2022/07/24 02:22:28;;;;;;;;;;;18.50;94.80;;;;;;5054624;28;19920;-73
2022/07/24 02:24:56;;;;;;;;;;;18.50;94.80;;;;;;5056942;28;19928;-73
2022/07/24 02:27:23;;;;;;;;;;;18.50;94.80;;;;;;5054783;28;19925;-73
2022/07/24 02:29:50;;;;;;;;;;;18.50;94.90;;;;;;5056728;28;20244;-73
2022/07/24 02:32:18;;;;;;;;;;;18.40;94.80;;;;;;5056348;28;20370;-73
2022/07/24 02:34:45;;;;;;;;;;;18.50;94.90;;;;;;5038007;28;19931;-73
2022/07/24 02:37:13;;;;;;;;;;;18.50;94.90;;;;;;5056035;28;19932;-73
2022/07/24 02:39:40;;;;;;;;;;;18.50;94.90;;;;;;5044779;28;19928;-73
2022/07/24 02:42:08;;;;;;;;;;;18.40;94.90;;;;;;5017911;28;19932;-73
2022/07/24 02:44:35;;;;;;;;;;;18.40;94.90;;;;;;5019037;28;20375;-74
2022/07/24 02:47:02;;;;;;;;;;;18.50;95.00;;;;;;5035974;28;19993;-73
2022/07/24 02:49:30;;;;;;;;;;;18.50;94.90;;;;;;5017720;28;20248;-73
2022/07/24 02:51:57;;;;;;;;;;;18.50;94.90;;;;;;5036225;28;19920;-73
2022/07/24 02:54:24;;;;;;;;;;;18.50;94.90;;;;;;5035262;28;19921;-73
2022/07/24 02:56:52;;;;;;;;;;;18.50;94.90;;;;;;5036188;28;19921;-73
2022/07/24 02:59:19;;;;;;;;;;;18.40;94.80;;;;;;5002394;28;20268;-73
2022/07/24 03:01:47;;;;;;;;;;;18.50;94.80;;;;;;5034761;28;19925;-73
2022/07/24 03:04:14;;;;;;;;;;;18.50;94.80;;;;;;5019068;28;19920;-73
2022/07/24 03:06:42;;;;;;;;;;;18.50;94.80;;;;;;5035768;28;19928;-73
2022/07/24 03:09:09;;;;;;;;;;;18.50;94.80;;;;;;5034734;28;19928;-73
2022/07/24 03:11:36;;;;;;;;;;;18.40;94.80;;;;;;5035641;28;19936;-73
2022/07/24 03:14:04;;;;;;;;;;;18.50;94.90;;;;;;5001189;28;19925;-73
2022/07/24 03:16:31;;;;;;;;;;;18.40;94.90;;;;;;5018863;28;19928;-73
2022/07/24 03:19:05;;;;;;;;;;;18.40;95.00;;;;;;5035532;28;19920;-73
2022/07/24 03:21:33;;;;;;;;;;;18.40;95.10;;;;;;5017618;28;19928;-73
2022/07/24 03:24:15;;;;;;;;;;;18.40;95.00;;;;;;5018223;28;19920;-73
2022/07/24 03:26:42;;;;;;;;;;;18.30;95.00;;;;;;5018410;28;19933;-73
2022/07/24 03:29:10;;;;;;;;;;;18.30;95.00;;;;;;5034404;28;19921;-73
2022/07/24 03:31:37;;;;;;;;;;;18.30;95.00;;;;;;5018487;28;19932;-73
2022/07/24 03:34:06;;;;;;;;;;;18.30;94.90;;;;;;5034500;28;19921;-73
2022/07/24 03:36:33;;;;;;;;;;;18.40;94.90;;;;;;5018201;28;20279;-73
2022/07/24 03:39:00;;;;;;;;;;;18.40;94.90;;;;;;5035213;28;19921;-73
2022/07/24 03:41:29;;;;;;;;;;;18.40;94.90;;;;;;5016801;28;19925;-73
2022/07/24 03:43:56;;;;;;;;;;;18.40;94.90;;;;;;5002197;28;19921;-73
2022/07/24 03:46:23;;;;;;;;;;;18.40;94.80;;;;;;5035513;28;20032;-73
2022/07/24 03:48:51;;;;;;;;;;;18.30;94.80;;;;;;5034102;28;20344;-73
2022/07/24 03:51:18;;;;;;;;;;;18.30;94.90;;;;;;5035453;28;20290;-73
2022/07/24 03:53:47;;;;;;;;;;;18.30;95.00;;;;;;5017549;28;19921;-73
2022/07/24 03:56:16;;;;;;;;;;;18.30;95.00;;;;;;5018249;28;19921;-73
2022/07/24 03:58:43;;;;;;;;;;;18.30;95.10;;;;;;5018328;28;19921;-73
2022/07/24 04:01:11;;;;;;;;;;;18.30;95.10;;;;;;5034157;28;19921;-73
2022/07/24 04:03:39;;;;;;;;;;;18.20;95.10;;;;;;5001341;28;19932;-74
2022/07/24 04:06:06;;;;;;;;;;;18.30;95.10;;;;;;5034887;28;19928;-74
2022/07/24 04:08:34;;;;;;;;;;;18.20;95.10;;;;;;5033781;28;19928;-73
2022/07/24 04:11:01;;;;;;;;;;;18.20;95.10;;;;;;5034865;28;19921;-74
2022/07/24 04:13:29;;;;;;;;;;;18.20;95.00;;;;;;5035247;28;19928;-74
2022/07/24 04:15:57;;;;;;;;;;;18.30;95.00;;;;;;5033935;28;19921;-74
2022/07/24 04:18:24;;;;;;;;;;;18.30;94.90;;;;;;5034957;28;20275;-74
2022/07/24 04:20:51;;;;;;;;;;;18.30;94.90;;;;;;5033836;28;19932;-73
2022/07/24 04:23:19;;;;;;;;;;;18.20;95.00;;;;;;5017584;28;19921;-74
2022/07/24 04:25:47;;;;;;;;;;;18.20;95.00;;;;;;5017397;28;19929;-73
2022/07/24 04:28:14;;;;;;;;;;;18.20;95.10;;;;;;5033976;28;19925;-73
2022/07/24 04:30:41;;;;;;;;;;;18.20;95.10;;;;;;5019730;28;19932;-73
2022/07/24 04:33:09;;;;;;;;;;;18.20;95.20;;;;;;5022038;28;19921;-74
2022/07/24 04:35:36;;;;;;;;;;;18.20;95.30;;;;;;5020255;28;19931;-74
2022/07/24 04:38:04;;;;;;;;;;;18.20;95.30;;;;;;5039222;28;19921;-73
2022/07/24 04:40:31;;;;;;;;;;;18.20;95.30;;;;;;5054016;28;19931;-73
2022/07/24 04:42:59;;;;;;;;;;;18.20;95.40;;;;;;5058390;28;20281;-73
2022/07/24 04:45:26;;;;;;;;;;;18.20;95.40;;;;;;5058626;28;19920;-74
2022/07/24 04:48:02;;;;;;;;;;;18.20;95.30;;;;;;5057241;28;19924;-73
2022/07/24 04:50:29;;;;;;;;;;;18.20;95.30;;;;;;5058115;28;19920;-73
2022/07/24 04:52:56;;;;;;;;;;;18.20;95.30;;;;;;5058304;28;19920;-74
2022/07/24 04:55:24;;;;;;;;;;;18.20;95.30;;;;;;5057269;28;19920;-73
2022/07/24 04:57:52;;;;;;;;;;;18.20;95.40;;;;;;5058191;28;19921;-74
2022/07/24 05:00:20;;;;;;;;;;;18.20;95.40;;;;;;5057184;28;19920;-74
2022/07/24 05:02:47;;;;;;;;;;;18.20;95.40;;;;;;5056141;28;19920;-74
2022/07/24 05:05:15;;;;;;;;;;;18.20;95.50;;;;;;5041193;28;19925;-73
2022/07/24 05:07:42;;;;;;;;;;;18.20;95.50;;;;;;5055996;28;19935;-73
2022/07/24 05:10:10;;;;;;;;;;;18.20;95.40;;;;;;5057251;28;19921;-74
2022/07/24 05:12:37;;;;;;;;;;;18.20;95.40;;;;;;5057840;28;19920;-74
2022/07/24 05:15:05;;;;;;;;;;;18.30;95.40;;;;;;5039320;28;19940;-74
2022/07/24 05:17:33;;;;;;;;;;;18.30;95.40;;;;;;5058042;28;19921;-74
2022/07/24 05:20:01;;;;;;;;;;;18.30;95.40;;;;;;5058356;28;19928;-74
2022/07/24 05:22:28;;;;;;;;;;;18.30;95.30;;;;;;5055822;28;20417;-74
2022/07/24 05:24:56;;;;;;;;;;;18.30;95.40;;;;;;5057771;28;19928;-73
2022/07/24 05:27:23;;;;;;;;;;;18.30;95.40;;;;;;5055567;28;19931;-74
2022/07/24 05:29:51;;;;;;;;;;;18.30;95.40;;;;;;5057614;28;20362;-74
2022/07/24 05:32:18;;;;;;;;;;;18.30;95.60;;;;;;5057540;28;20256;-74
2022/07/24 05:34:45;;;;;;;;;;;18.30;95.40;;;;;;5055366;28;19924;-73
2022/07/24 05:37:13;;;;;;;;;;;18.30;95.30;;;;;;5056769;28;19920;-73
2022/07/24 05:39:40;;;;;;;;;;;18.30;95.30;;;;;;5056403;28;19927;-73
2022/07/24 05:42:08;;;;;;;;;;;18.30;95.30;;;;;;5054199;28;19920;-74
2022/07/24 05:44:36;;;;;;;;;;;18.30;95.20;;;;;;5056987;28;19924;-74
2022/07/24 05:47:03;;;;;;;;;;;18.30;95.10;;;;;;5056533;28;20251;-75
2022/07/24 05:49:34;;;;;;;;;;;18.30;95.10;;;;;;5057703;28;19928;-75
2022/07/24 05:52:02;;;;;;;;;;;18.30;95.10;;;;;;5056530;28;19920;-75
2022/07/24 05:54:35;;;;;;;;;;;18.30;95.10;;;;;;5054967;28;19921;-75
2022/07/24 05:57:03;;;;;;;;;;;18.30;95.10;;;;;;5057068;28;19932;-75
2022/07/24 05:59:30;;;;;;;;;;;18.30;95.20;;;;;;5057325;28;19927;-75
2022/07/24 06:01:59;;;;;;;;;;;18.30;95.20;;;;;;5056091;28;20344;-75
2022/07/24 06:04:27;;;;;;;;;;;18.40;95.30;;;;;;5056281;28;19921;-75
2022/07/24 06:06:54;;;;;;;;;;;18.40;95.20;;;;;;5056145;28;19921;-75
2022/07/24 06:09:22;;;;;;;;;;;18.40;95.30;;;;;;5038252;28;19924;-75
2022/07/24 06:11:49;;;;;;;;;;;18.40;95.30;;;;;;5039718;28;19924;-75
2022/07/24 06:14:17;;;;;;;;;;;18.40;95.40;;;;;;5038835;28;19920;-75
2022/07/24 06:16:44;;;;;;;;;;;18.50;95.50;;;;;;5056959;28;19927;-75
2022/07/24 06:19:12;;;;;;;;;;;18.50;95.50;;;;;;5055733;28;20310;-75
2022/07/24 06:21:39;;;;;;;;;;;18.50;95.50;;;;;;5055447;28;19921;-75
2022/07/24 06:24:07;;;;;;;;;;;18.50;95.60;;;;;;5056639;28;19927;-75
2022/07/24 06:26:34;;;;;;;;;;;18.60;95.60;;;;;;5039453;28;19920;-75
2022/07/24 06:29:22;;;;;;;;;;;18.60;95.60;;;;;;5054573;28;19921;-75
2022/07/24 06:31:49;;;;;;;;;;;18.60;95.60;;;;;;5038878;28;19924;-74
2022/07/24 06:34:16;;;;;;;;;;;18.60;95.60;;;;;;5054501;28;19952;-74
2022/07/24 06:36:44;;;;;;;;;;;18.60;95.70;;;;;;5056538;28;19928;-75
2022/07/24 06:39:11;;;;;;;;;;;18.70;95.90;;;;;;5055230;28;19920;-74
2022/07/24 06:41:39;;;;;;;;;;;18.70;95.60;;;;;;5054099;28;19932;-75
2022/07/24 06:44:14;;;;;;;;;;;18.70;95.70;;;;;;5038638;28;20275;-74
2022/07/24 06:46:41;;;;;;;;;;;18.80;95.70;;;;;;5055966;28;19921;-74
2022/07/24 06:49:09;;;;;;;;;;;18.80;95.70;;;;;;5054093;28;20343;-75
2022/07/24 06:51:36;;;;;;;;;;;18.90;95.60;;;;;;5056168;28;19920;-75
2022/07/24 06:54:04;;;;;;;;;;;18.90;95.50;;;;;;5053746;28;20275;-74
2022/07/24 06:56:31;;;;;;;;;;;18.90;95.40;;;;;;5038795;28;19921;-75
2022/07/24 06:58:59;;;;;;;;;;;19.00;95.40;;;;;;5055772;28;19920;-75
2022/07/24 07:01:27;;;;;;;;;;;19.00;95.10;;;;;;5054910;28;19921;-75
2022/07/24 07:03:55;;;;;;;;;;;19.10;95.00;;;;;;5056212;28;19927;-75
2022/07/24 07:06:22;;;;;;;;;;;19.10;95.00;;;;;;5056000;28;19987;-75
2022/07/24 07:08:50;;;;;;;;;;;19.20;94.80;;;;;;5053841;28;19920;-74
2022/07/24 07:11:17;;;;;;;;;;;19.20;94.50;;;;;;5055690;28;20241;-75
2022/07/24 07:13:44;;;;;;;;;;;19.30;94.40;;;;;;5054698;28;20436;-75
2022/07/24 07:16:12;;;;;;;;;;;19.30;94.10;;;;;;5054867;28;19921;-74
2022/07/24 07:18:39;;;;;;;;;;;19.40;94.00;;;;;;5054539;28;20382;-75
2022/07/24 07:21:07;;;;;;;;;;;19.40;93.90;;;;;;5054499;28;19920;-75
2022/07/24 07:23:34;;;;;;;;;;;19.50;94.00;;;;;;5055551;28;19920;-75
2022/07/24 07:26:02;;;;;;;;;;;19.50;93.70;;;;;;5054718;28;19932;-75
2022/07/24 07:28:29;;;;;;;;;;;19.60;93.50;;;;;;5037139;28;19921;-75
2022/07/24 07:30:57;;;;;;;;;;;19.60;93.40;;;;;;5055285;28;19920;-75
2022/07/24 07:33:26;;;;;;;;;;;19.70;93.40;;;;;;5054754;28;20287;-75
2022/07/24 07:35:53;;;;;;;;;;;19.70;93.30;;;;;;5054139;28;19928;-75
2022/07/24 07:38:21;;;;;;;;;;;19.70;93.00;;;;;;5053709;28;19921;-75
2022/07/24 07:40:53;;;;;;;;;;;19.80;92.70;;;;;;4985154;28;19932;-75
2022/07/24 07:43:20;;;;;;;;;;;19.80;92.80;;;;;;5018011;28;20383;-74
2022/07/24 07:45:47;;;;;;;;;;;19.80;92.90;;;;;;5017838;28;20439;-73
2022/07/24 07:48:16;;;;;;;;;;;19.90;92.90;;;;;;5033749;28;19928;-75
2022/07/24 07:50:43;;;;;;;;;;;19.90;92.60;;;;;;5017608;28;19924;-76
2022/07/24 07:53:10;;;;;;;;;;;20.00;92.40;;;;;;5034840;28;19921;-75
2022/07/24 07:55:38;;;;;;;;;;;20.00;92.20;;;;;;5033742;28;20279;-75
2022/07/24 07:58:05;;;;;;;;;;;20.10;92.20;;;;;;5034881;28;20253;-76
2022/07/24 08:00:34;;;;;;;;;;;20.10;92.30;;;;;;5033474;28;19921;-75
2022/07/24 08:03:01;;;;;;;;;;;20.10;92.20;;;;;;5001191;28;19920;-75
2022/07/24 08:05:29;;;;;;;;;;;20.20;91.90;;;;;;5016744;28;19928;-73
2022/07/24 08:07:56;;;;;;;;;;;20.20;92.00;;;;;;5016080;28;19936;-75
2022/07/24 08:10:24;;;;;;;;;;;20.20;92.10;;;;;;5017415;28;20267;-74
2022/07/24 08:12:51;;;;;;;;;;;20.20;92.10;;;;;;5016031;28;19921;-76
2022/07/24 08:15:19;;;;;;;;;;;20.20;91.80;;;;;;5033537;28;19944;-75
2022/07/24 08:17:50;;;;;;;;;;;20.30;91.90;;;;;;5001025;28;19925;-75
2022/07/24 08:20:19;;;;;;;;;;;20.30;91.80;;;;;;5017313;28;20352;-75
2022/07/24 08:22:47;;;;;;;;;;;20.50;91.50;;;;;;5016358;28;19920;-74
2022/07/24 08:25:14;;;;;;;;;;;20.50;91.20;;;;;;5034676;28;19932;-73
2022/07/24 08:27:46;;;;;;;;;;;20.60;91.00;;;;;;5033325;28;19932;-76
2022/07/24 08:30:14;;;;;;;;;;;20.70;91.00;;;;;;5016953;28;19921;-74
2022/07/24 08:32:43;;;;;;;;;;;20.80;90.60;;;;;;5033716;28;20371;-74
2022/07/24 08:35:11;;;;;;;;;;;20.80;90.10;;;;;;5033121;28;19925;-74
2022/07/24 08:37:40;;;;;;;;;;;20.90;90.00;;;;;;5034513;28;19928;-74
2022/07/24 08:40:08;;;;;;;;;;;21.00;90.00;;;;;;5034245;28;19932;-74
2022/07/24 08:42:36;;;;;;;;;;;21.00;90.20;;;;;;5033378;28;20351;-72
2022/07/24 08:45:04;;;;;;;;;;;21.10;90.40;;;;;;5017255;28;20232;-74
2022/07/24 08:47:36;;;;;;;;;;;21.20;90.20;;;;;;5032862;28;19928;-74
2022/07/24 08:50:04;;;;;;;;;;;21.30;88.60;;;;;;5034396;28;20359;-74
2022/07/24 08:52:35;;;;;;;;;;;21.30;87.90;;;;;;5034338;28;19928;-74
2022/07/24 08:55:07;;;;;;;;;;;21.40;87.80;;;;;;5033408;28;19921;-74
2022/07/24 08:57:35;;;;;;;;;;;21.50;88.00;;;;;;5034498;28;19921;-74
2022/07/24 09:00:03;;;;;;;;;;;21.50;87.60;;;;;;5034340;28;20367;-74
2022/07/24 09:02:31;;;;;;;;;;;21.60;86.10;;;;;;4999765;28;19932;-74
2022/07/24 09:04:59;;;;;;;;;;;21.60;86.20;;;;;;5017381;28;19925;-74
2022/07/24 09:07:28;;;;;;;;;;;21.70;85.90;;;;;;5033498;28;20176;-76
2022/07/24 09:09:58;;;;;;;;;;;21.80;85.10;;;;;;5034362;28;19928;-76
2022/07/24 09:12:29;;;;;;;;;;;21.80;84.20;;;;;;5000872;28;19921;-76
2022/07/24 09:14:57;;;;;;;;;;;21.90;83.70;;;;;;5033400;28;19921;-73
2022/07/24 09:17:24;;;;;;;;;;;22.00;82.60;;;;;;5037118;28;20245;-76
2022/07/24 09:19:54;;;;;;;;;;;22.10;81.20;;;;;;5037774;28;19921;-75
2022/07/24 09:22:28;;;;;;;;;;;22.20;80.80;;;;;;5019421;28;19932;-75
2022/07/24 09:25:14;;;;;;;;;;;22.30;80.50;;;;;;5020253;28;19929;-73
2022/07/24 09:27:46;;;;;;;;;;;22.30;81.20;;;;;;5036585;28;19928;-74
2022/07/24 09:30:31;;;;;;;;;;;22.40;82.70;;;;;;4988428;28;19932;-74
2022/07/24 09:33:01;;;;;;;;;;;22.40;82.00;;;;;;5037661;28;20260;-74
2022/07/24 09:35:30;;;;;;;;;;;22.50;82.20;;;;;;5036392;28;19921;-75
2022/07/24 09:37:58;;;;;;;;;;;22.60;81.80;;;;;;5020702;28;19928;-75
2022/07/24 09:40:28;;;;;;;;;;;22.60;83.20;;;;;;5039246;28;19921;-74
2022/07/24 09:43:13;;;;;;;;;;;22.40;81.50;;;;;;5020185;28;19928;-72
2022/07/24 09:45:54;;;;;;;;;;;22.10;82.10;;;;;;5019350;28;19920;-73
2022/07/24 09:48:24;;;;;;;;;;;22.10;82.30;;;;;;5036150;28;20240;-73
2022/07/24 09:50:55;;;;;;;;;;;22.10;82.20;;;;;;5020053;28;19921;-74
2022/07/24 09:53:25;;;;;;;;;;;22.10;82.20;;;;;;5020040;28;19932;-70
2022/07/24 09:56:11;;;;;;;;;;;22.10;81.70;;;;;;5018948;28;20260;-73
2022/07/24 09:58:45;;;;;;;;;;;22.20;82.00;;;;;;5037525;28;20245;-73
2022/07/24 10:01:17;;;;;;;;;;;22.30;81.10;;;;;;5036290;28;19928;-74
2022/07/24 10:03:46;;;;;;;;;;;22.30;80.80;;;;;;5037250;28;19921;-71
2022/07/24 10:06:14;;;;;;;;;;;22.40;80.70;;;;;;5036336;28;20267;-75
2022/07/24 10:08:43;;;;;;;;;;;22.50;80.30;;;;;;5001941;28;19928;-72
2022/07/24 10:11:11;;;;;;;;;;;22.60;78.80;;;;;;5036695;28;19932;-73
2022/07/24 10:13:39;;;;;;;;;;;22.70;78.70;;;;;;5019326;28;19932;-76
2022/07/24 10:16:13;;;;;;;;;;;22.80;78.80;;;;;;5035403;28;19928;-77
2022/07/24 10:19:00;;;;;;;;;;;22.90;77.00;;;;;;5019268;28;19928;-75
2022/07/24 10:21:31;;;;;;;;;;;23.10;76.50;;;;;;5032063;28;20324;-73
2022/07/24 10:24:08;;;;;;;;;;;23.30;76.60;;;;;;5019213;28;19925;-74
2022/07/24 10:26:36;;;;;;;;;;;23.40;75.70;;;;;;5036421;28;19921;-76
2022/07/24 10:29:11;;;;;;;;;;;23.50;73.70;;;;;;5034488;28;20263;-76
2022/07/24 10:31:40;;;;;;;;;;;23.60;75.30;;;;;;5036570;28;19925;-74
2022/07/24 10:34:13;;;;;;;;;;;23.70;75.50;;;;;;5035155;28;20086;-73
2022/07/24 10:36:46;;;;;;;;;;;23.80;74.90;;;;;;5018715;28;19921;-74
2022/07/24 10:39:22;;;;;;;;;;;23.90;74.50;;;;;;5036010;28;19920;-75
2022/07/24 10:42:19;;;;;;;;;;;24.00;73.70;;;;;;5001477;28;19932;-75
2022/07/24 10:45:05;;;;;;;;;;;24.00;73.50;;;;;;5015490;28;19921;-73
2022/07/24 10:47:35;;;;;;;;;;;24.10;73.70;;;;;;5034777;28;19921;-76
2022/07/24 10:50:04;;;;;;;;;;;24.20;73.30;;;;;;5035659;28;19928;-73
2022/07/24 10:52:33;;;;;;;;;;;24.20;73.80;;;;;;5035811;28;19921;-73
2022/07/24 10:55:19;;;;;;;;;;;24.30;73.50;;;;;;5017513;28;19921;-73
2022/07/24 10:57:48;;;;;;;;;;;24.40;72.80;;;;;;5035786;28;19921;-76
2022/07/24 11:00:26;;;;;;;;;;;24.40;73.50;;;;;;5035740;28;19921;-76
2022/07/24 11:03:17;;;;;;;;;;;24.50;72.20;;;;;;5035980;28;19921;-76
2022/07/24 11:06:02;;;;;;;;;;;24.60;71.40;;;;;;5023801;28;19921;-75
2022/07/24 11:08:33;;;;;;;;;;;24.60;71.50;;;;;;5034690;28;19931;-73
2022/07/24 11:11:11;;;;;;;;;;;24.50;71.80;;;;;;5035770;28;19921;-73
2022/07/24 11:13:41;;;;;;;;;;;24.50;71.80;;;;;;5019023;28;19921;-72
2022/07/24 11:16:15;;;;;;;;;;;24.60;72.80;;;;;;5034666;28;19921;-73
2022/07/24 11:18:52;;;;;;;;;;;24.70;73.30;;;;;;5035717;28;19921;-72
2022/07/24 11:21:31;;;;;;;;;;;24.80;72.50;;;;;;5017408;28;20054;-73
2022/07/24 11:24:16;;;;;;;;;;;24.80;72.70;;;;;;5018463;28;19921;-77
2022/07/24 11:26:45;;;;;;;;;;;24.90;71.50;;;;;;5018791;28;19932;-70
2022/07/24 11:29:14;;;;;;;;;;;24.90;70.40;;;;;;5034370;28;19921;-74
2022/07/24 11:31:45;;;;;;;;;;;25.00;69.20;;;;;;5018249;28;19928;-73
2022/07/24 11:34:13;;;;;;;;;;;25.00;69.50;;;;;;5029635;28;19921;-73
2022/07/24 11:36:42;;;;;;;;;;;25.00;69.00;;;;;;5017706;28;19928;-75
2022/07/24 11:39:10;;;;;;;;;;;25.00;69.40;;;;;;5024827;28;19933;-71
2022/07/24 11:41:44;;;;;;;;;;;25.00;69.90;;;;;;5014338;28;19921;-72
2022/07/24 11:44:13;;;;;;;;;;;25.00;70.00;;;;;;5009406;28;19932;-73
2022/07/24 11:46:41;;;;;;;;;;;25.10;69.80;;;;;;5001614;28;19921;-74
2022/07/24 11:49:10;;;;;;;;;;;25.20;70.00;;;;;;5034061;28;19928;-72
2022/07/24 11:51:43;;;;;;;;;;;25.30;70.40;;;;;;5006239;28;20352;-73
2022/07/24 11:54:12;;;;;;;;;;;25.30;69.70;;;;;;4997470;28;19921;-73
2022/07/24 11:56:39;;;;;;;;;;;25.30;70.10;;;;;;4998509;28;20360;-72
2022/07/24 11:59:23;;;;;;;;;;;25.40;70.90;;;;;;4997957;28;19921;-73
2022/07/24 12:01:56;;;;;;;;;;;25.40;71.00;;;;;;4997296;28;20276;-76
2022/07/24 12:04:24;;;;;;;;;;;25.40;71.00;;;;;;5015510;28;19947;-73
2022/07/24 12:06:51;;;;;;;;;;;25.50;70.40;;;;;;5015081;28;19928;-72
2022/07/24 12:09:19;;;;;;;;;;;25.50;69.80;;;;;;4996894;28;19921;-74
2022/07/24 12:11:46;;;;;;;;;;;25.60;69.10;;;;;;4997872;28;19932;-74
2022/07/24 12:14:20;;;;;;;;;;;25.60;68.90;;;;;;4996910;28;19926;-74
2022/07/24 12:16:53;;;;;;;;;;;25.60;68.80;;;;;;5015283;28;19936;-74
2022/07/24 12:19:22;;;;;;;;;;;25.50;69.10;;;;;;4998254;28;20272;-73
2022/07/24 12:21:53;;;;;;;;;;;25.50;69.40;;;;;;5014086;28;19925;-74
2022/07/24 12:24:21;;;;;;;;;;;25.60;69.40;;;;;;5015044;28;20379;-74
2022/07/24 12:26:49;;;;;;;;;;;25.60;69.80;;;;;;4998088;28;19937;-73
2022/07/24 12:29:17;;;;;;;;;;;25.70;70.00;;;;;;4996809;28;19940;-74
2022/07/24 12:31:46;;;;;;;;;;;25.80;68.80;;;;;;4998157;28;19921;-74
2022/07/24 12:34:14;;;;;;;;;;;25.90;68.80;;;;;;5014058;28;19940;-74
2022/07/24 12:36:41;;;;;;;;;;;26.00;68.60;;;;;;5015015;28;19952;-74
2022/07/24 12:39:10;;;;;;;;;;;26.20;67.90;;;;;;5004791;28;19928;-74
2022/07/24 12:41:44;;;;;;;;;;;26.30;67.70;;;;;;5034087;28;20344;-73
2022/07/24 12:44:16;;;;;;;;;;;25.50;66.90;;;;;;5034929;28;19926;-74
2022/07/24 12:46:47;;;;;;;;;;;26.40;67.80;;;;;;5038891;28;19932;-72
2022/07/24 12:49:15;;;;;;;;;;;26.50;66.70;;;;;;5027364;28;20241;-74
2022/07/24 12:51:55;;;;;;;;;;;26.50;66.30;;;;;;5055396;28;19943;-73
2022/07/24 12:54:23;;;;;;;;;;;26.50;65.80;;;;;;5056535;28;20267;-74
2022/07/24 12:56:51;;;;;;;;;;;26.40;66.10;;;;;;5057261;28;19921;-74
2022/07/24 12:59:25;;;;;;;;;;;26.40;66.80;;;;;;5058172;28;19936;-74
2022/07/24 13:01:53;;;;;;;;;;;26.40;67.00;;;;;;5039703;28;19920;-74
2022/07/24 13:04:22;;;;;;;;;;;26.50;66.70;;;;;;5058122;28;19921;-74
2022/07/24 13:06:52;;;;;;;;;;;26.60;66.30;;;;;;5057041;28;19951;-73
2022/07/24 13:09:20;;;;;;;;;;;26.70;66.10;;;;;;5055948;28;19924;-74
2022/07/24 13:11:48;;;;;;;;;;;26.80;66.00;;;;;;5057517;28;19920;-74
2022/07/24 13:14:17;;;;;;;;;;;26.80;65.40;;;;;;5055695;28;19951;-74
2022/07/24 13:16:45;;;;;;;;;;;26.90;65.80;;;;;;5057897;28;20380;-74
2022/07/24 13:19:13;;;;;;;;;;;26.90;65.70;;;;;;5040828;28;20367;-74
2022/07/24 13:21:42;;;;;;;;;;;27.00;65.50;;;;;;5056635;28;19920;-74
2022/07/24 13:24:11;;;;;;;;;;;27.00;65.40;;;;;;5056842;28;19984;-73
2022/07/24 13:26:39;;;;;;;;;;;27.10;65.80;;;;;;5057120;28;19927;-74
2022/07/24 13:29:07;;;;;;;;;;;27.10;64.80;;;;;;5056417;28;20339;-74
2022/07/24 13:31:35;;;;;;;;;;;27.00;65.60;;;;;;5057543;28;19939;-74
2022/07/24 13:34:03;;;;;;;;;;;27.00;64.90;;;;;;5056367;28;19921;-74
2022/07/24 13:36:34;;;;;;;;;;;26.90;65.00;;;;;;5057400;28;20279;-74
2022/07/24 13:39:04;;;;;;;;;;;26.90;64.90;;;;;;5052758;28;19921;-74
2022/07/24 13:41:34;;;;;;;;;;;26.80;64.70;;;;;;5019087;28;19928;-73
2022/07/24 13:44:03;;;;;;;;;;;26.80;65.30;;;;;;5037419;28;19928;-74
2022/07/24 13:46:31;;;;;;;;;;;26.80;66.00;;;;;;5037555;28;19921;-74
2022/07/24 13:48:59;;;;;;;;;;;26.80;66.10;;;;;;5019107;28;19947;-74
2022/07/24 13:51:29;;;;;;;;;;;26.70;64.80;;;;;;5037205;28;19928;-74
2022/07/24 13:53:59;;;;;;;;;;;26.80;64.80;;;;;;5036029;28;20362;-74
2022/07/24 13:56:27;;;;;;;;;;;26.80;64.70;;;;;;5037363;28;19940;-74
2022/07/24 13:58:56;;;;;;;;;;;26.80;65.20;;;;;;5037071;28;20287;-74
2022/07/24 14:01:23;;;;;;;;;;;26.80;65.90;;;;;;5018867;28;19944;-74
2022/07/24 14:04:08;;;;;;;;;;;26.80;65.70;;;;;;5018948;28;19928;-74
2022/07/24 14:06:54;;;;;;;;;;;26.80;66.10;;;;;;5019815;28;19943;-74
2022/07/24 14:09:22;;;;;;;;;;;26.70;65.90;;;;;;5001816;28;20363;-74
2022/07/24 14:11:50;;;;;;;;;;;26.60;65.80;;;;;;5003415;28;19925;-74
2022/07/24 14:14:18;;;;;;;;;;;26.50;65.80;;;;;;5036112;28;19943;-74
2022/07/24 14:16:45;;;;;;;;;;;26.40;66.00;;;;;;5019564;28;19933;-74
2022/07/24 14:19:13;;;;;;;;;;;26.40;65.80;;;;;;5020237;28;20363;-74
2022/07/24 14:21:45;;;;;;;;;;;26.30;65.80;;;;;;5018384;28;20375;-74
2022/07/24 14:24:15;;;;;;;;;;;26.30;65.60;;;;;;5036402;28;19921;-74
2022/07/24 14:26:44;;;;;;;;;;;26.20;64.80;;;;;;5003215;28;19932;-74
2022/07/24 14:29:12;;;;;;;;;;;26.20;64.90;;;;;;5018242;28;20375;-74